Forside
METAR-TAF:

METAR-TAF

Lufthavne :

Decorah Municipal Airport

Decorah, Iowa, USA

Breddekreds: 43-17N, længdekreds: 091-44W, højde: 353 m

Aktuelle vejr

Denne rapport blev lavet for 15 minutter siden, kl. 10:15 UTC
Vind 11 kt fra nord
Temperatur 7°C
Fugtighed 87%
Tryk 1017 hPa
Sigt: 16.1 km
Overskyet i en højde af 1000 ft

METAR: KDEH 231015Z AUTO 01011KT 10SM OVC010 07/05 A3002 RMK AO2

Tid: 05:30 (10:30 UTC)


TAF: fraværende

Vejrobservationer og prognoser fra mere end 4000 lufthavne (METAR og TAF).

De gule og røde prikker repræsenterer de meteorologiske stationer.

Flyt musen over at se navnet på stationen.

Så klik over at se vejr observationer og prognoser.

At skifte det kort: Klik på de grønne knapper med et sort kors for at zoome ind; på den grønne knap med en bindestreg for at zoome ud; eller på de grønne pile for tilstødende kort.


METAR-TAF: